Etusivu
METAR-TAF:

METAR-TAF

Lentoasemat :

Höfn, Islanti

Leveyspiiri: 64-18N, Pituuspiiri: 015-13W, korkeus merenpinnasta: 17 m

Tämänhetkinen sää

Tämä raportti tehtiin 18 tuntia ja 13 minuuttia sitten, kello 18.00 UTC
Tuuli 26 kn lounaasta
Lämpötila 11°C
Kosteus 87%
Ilmanpaine 1018 hPa
Näkyvyys 10 km tai enemmän
Muutamia pilviä 1000 ft:n korkeudessa
Muutamia pilviä 3000 ft:n korkeudessa
usvaa

METAR: BIHN 291800Z 22026KT 9999 HZ FEW010 FEW030 11/09 Q1018

Aika: 12:13 (12:13 UTC)

Sääennuste

Tämä raportti tehtiin 20 tuntia ja 5 minuuttia sitten, kello 16.08 UTC
Ennuste voimassa 29. päivästä klo 17 UTC - 29. päivään klo 20 UTC
Tuuli 25 kn lounaasta puuskistuen 40 kn:hen
Näkyvyys: 9000 m
Muutamia pilviä 1200 ft:n korkeudessa
Hajanaisia pilviä 2500 ft:n korkeudessa
Hajonneita pilviä 4500 ft:n korkeudessa
usvaa

TAF: BIHN 291608Z 2917/2920 23025G40KT 9000 HZ FEW012 SCT025 BKN045

Säähavainnot ja -ennusteet yli 4000 lentoasemalta (METAR- ja TAF-raportit).

Käytössä olevat sääasemat on merkitty karttaan keltaisilla ja punaisilla pisteillä.

Aseta hiiri pisteen päälle nähdäksesi sääaseman nimen.

Klikkaa sitten nähdäksesi säähavainnot ja -ennusteet.

Kartan vaihtaminen: klikkaa mustalla rastilla varustettuja vihreitä pisteitä, niin voit zoomata sisään; viivalla varustettua vihreää pistettä, niin voit zoomata ulos tai vihreitä nuolia, niin pääset viereisille kartoille.


METAR-TAF: